sensor_id;sensor_type;location;lat;lon;timestamp;P1;durP1;ratioP1;P2;durP2;ratioP2
27408;SDS011;20413;50.782;7.152;2022-11-11T00:00:11;14.10;;;7.18;;
27408;SDS011;20413;50.782;7.152;2022-11-11T00:02:37;12.77;;;7.20;;
27408;SDS011;20413;50.782;7.152;2022-11-11T00:05:04;14.43;;;6.38;;
27408;SDS011;20413;50.782;7.152;2022-11-11T00:07:30;12.05;;;6.75;;
27408;SDS011;20413;50.782;7.152;2022-11-11T00:09:56;15.23;;;7.10;;
27408;SDS011;20413;50.782;7.152;2022-11-11T00:12:22;14.15;;;7.55;;
27408;SDS011;20413;50.782;7.152;2022-11-11T00:14:48;14.48;;;7.05;;
27408;SDS011;20413;50.782;7.152;2022-11-11T00:17:14;16.55;;;7.00;;
27408;SDS011;20413;50.782;7.152;2022-11-11T00:19:59;19.30;;;7.22;;
27408;SDS011;20413;50.782;7.152;2022-11-11T00:22:43;12.90;;;6.43;;
27408;SDS011;20413;50.782;7.152;2022-11-11T00:25:28;14.43;;;6.90;;
27408;SDS011;20413;50.782;7.152;2022-11-11T00:27:54;14.05;;;6.60;;
27408;SDS011;20413;50.782;7.152;2022-11-11T00:30:20;14.93;;;6.63;;
27408;SDS011;20413;50.782;7.152;2022-11-11T00:32:46;14.18;;;6.63;;
27408;SDS011;20413;50.782;7.152;2022-11-11T00:35:12;15.48;;;5.90;;
27408;SDS011;20413;50.782;7.152;2022-11-11T00:38:02;10.82;;;5.65;;
27408;SDS011;20413;50.782;7.152;2022-11-11T00:40:30;9.70;;;6.28;;
27408;SDS011;20413;50.782;7.152;2022-11-11T00:42:56;14.57;;;7.07;;
27408;SDS011;20413;50.782;7.152;2022-11-11T00:45:22;14.30;;;6.03;;
27408;SDS011;20413;50.782;7.152;2022-11-11T00:47:48;16.88;;;7.25;;
27408;SDS011;20413;50.782;7.152;2022-11-11T00:50:33;13.25;;;7.30;;
27408;SDS011;20413;50.782;7.152;2022-11-11T00:53:18;14.90;;;6.68;;
27408;SDS011;20413;50.782;7.152;2022-11-11T00:55:45;13.43;;;5.85;;
27408;SDS011;20413;50.782;7.152;2022-11-11T00:58:11;15.35;;;6.72;;
27408;SDS011;20413;50.782;7.152;2022-11-11T01:00:43;12.63;;;6.05;;
27408;SDS011;20413;50.782;7.152;2022-11-11T01:03:09;12.50;;;6.72;;
27408;SDS011;20413;50.782;7.152;2022-11-11T01:05:36;15.90;;;7.65;;
27408;SDS011;20413;50.782;7.152;2022-11-11T01:08:02;12.98;;;7.28;;
27408;SDS011;20413;50.782;7.152;2022-11-11T01:10:28;16.83;;;7.50;;
27408;SDS011;20413;50.782;7.152;2022-11-11T01:15:57;14.32;;;6.65;;
27408;SDS011;20413;50.782;7.152;2022-11-11T01:18:24;11.13;;;6.65;;
27408;SDS011;20413;50.782;7.152;2022-11-11T01:21:01;16.60;;;7.20;;
27408;SDS011;20413;50.782;7.152;2022-11-11T01:23:31;13.45;;;6.68;;
27408;SDS011;20413;50.782;7.152;2022-11-11T01:26:02;15.88;;;7.30;;
27408;SDS011;20413;50.782;7.152;2022-11-11T01:28:28;16.95;;;7.15;;
27408;SDS011;20413;50.782;7.152;2022-11-11T01:30:59;17.17;;;8.05;;
27408;SDS011;20413;50.782;7.152;2022-11-11T01:33:25;16.40;;;7.53;;
27408;SDS011;20413;50.782;7.152;2022-11-11T01:35:51;14.45;;;7.20;;
27408;SDS011;20413;50.782;7.152;2022-11-11T01:38:17;15.85;;;7.78;;
27408;SDS011;20413;50.782;7.152;2022-11-11T01:40:44;12.60;;;6.75;;
27408;SDS011;20413;50.782;7.152;2022-11-11T01:51:12;10.32;;;6.15;;
27408;SDS011;20413;50.782;7.152;2022-11-11T01:53:39;9.68;;;5.65;;
27408;SDS011;20413;50.782;7.152;2022-11-11T01:56:06;14.40;;;6.28;;
27408;SDS011;20413;50.782;7.152;2022-11-11T01:58:33;15.77;;;7.25;;
27408;SDS011;20413;50.782;7.152;2022-11-11T02:00:59;11.05;;;7.07;;
27408;SDS011;20413;50.782;7.152;2022-11-11T02:03:26;13.43;;;6.93;;
27408;SDS011;20413;50.782;7.152;2022-11-11T02:05:54;16.48;;;8.07;;
27408;SDS011;20413;50.782;7.152;2022-11-11T02:08:23;13.15;;;7.40;;
27408;SDS011;20413;50.782;7.152;2022-11-11T02:11:01;16.85;;;8.10;;
27408;SDS011;20413;50.782;7.152;2022-11-11T02:13:29;17.67;;;7.85;;
27408;SDS011;20413;50.782;7.152;2022-11-11T02:16:14;10.10;;;7.13;;
27408;SDS011;20413;50.782;7.152;2022-11-11T02:18:40;18.95;;;8.05;;
27408;SDS011;20413;50.782;7.152;2022-11-11T02:21:07;17.75;;;7.22;;
27408;SDS011;20413;50.782;7.152;2022-11-11T02:26:03;12.25;;;6.50;;
27408;SDS011;20413;50.782;7.152;2022-11-11T02:28:30;16.25;;;7.15;;
27408;SDS011;20413;50.782;7.152;2022-11-11T02:30:57;16.75;;;7.05;;
27408;SDS011;20413;50.782;7.152;2022-11-11T02:33:23;13.23;;;6.82;;
27408;SDS011;20413;50.782;7.152;2022-11-11T02:35:50;12.57;;;6.57;;
27408;SDS011;20413;50.782;7.152;2022-11-11T02:38:25;13.82;;;7.28;;
27408;SDS011;20413;50.782;7.152;2022-11-11T02:40:51;16.50;;;7.38;;
27408;SDS011;20413;50.782;7.152;2022-11-11T02:43:36;16.58;;;7.53;;
27408;SDS011;20413;50.782;7.152;2022-11-11T02:46:03;16.85;;;7.65;;
27408;SDS011;20413;50.782;7.152;2022-11-11T02:48:30;11.80;;;7.07;;
27408;SDS011;20413;50.782;7.152;2022-11-11T02:50:56;14.85;;;7.45;;
27408;SDS011;20413;50.782;7.152;2022-11-11T02:53:22;10.93;;;5.85;;
27408;SDS011;20413;50.782;7.152;2022-11-11T02:55:48;13.38;;;7.13;;
27408;SDS011;20413;50.782;7.152;2022-11-11T02:58:14;12.45;;;6.82;;
27408;SDS011;20413;50.782;7.152;2022-11-11T03:00:40;16.45;;;7.45;;
27408;SDS011;20413;50.782;7.152;2022-11-11T03:03:06;12.63;;;7.15;;
27408;SDS011;20413;50.782;7.152;2022-11-11T03:05:33;12.38;;;6.13;;
27408;SDS011;20413;50.782;7.152;2022-11-11T03:07:59;10.20;;;6.75;;
27408;SDS011;20413;50.782;7.152;2022-11-11T03:10:25;15.68;;;7.03;;
27408;SDS011;20413;50.782;7.152;2022-11-11T03:12:51;12.07;;;6.28;;
27408;SDS011;20413;50.782;7.152;2022-11-11T03:15:23;12.23;;;6.80;;
27408;SDS011;20413;50.782;7.152;2022-11-11T03:17:49;13.02;;;6.43;;
27408;SDS011;20413;50.782;7.152;2022-11-11T03:20:16;12.85;;;6.78;;
27408;SDS011;20413;50.782;7.152;2022-11-11T03:23:11;12.43;;;6.38;;
27408;SDS011;20413;50.782;7.152;2022-11-11T03:25:41;15.20;;;6.80;;
27408;SDS011;20413;50.782;7.152;2022-11-11T03:28:09;12.40;;;6.38;;
27408;SDS011;20413;50.782;7.152;2022-11-11T03:30:35;9.32;;;4.88;;
27408;SDS011;20413;50.782;7.152;2022-11-11T03:33:02;12.50;;;6.47;;
27408;SDS011;20413;50.782;7.152;2022-11-11T03:35:28;11.88;;;6.82;;
27408;SDS011;20413;50.782;7.152;2022-11-11T03:37:54;10.05;;;5.97;;
27408;SDS011;20413;50.782;7.152;2022-11-11T03:40:39;9.50;;;5.88;;
27408;SDS011;20413;50.782;7.152;2022-11-11T03:43:05;15.77;;;7.00;;
27408;SDS011;20413;50.782;7.152;2022-11-11T03:45:31;12.27;;;6.80;;
27408;SDS011;20413;50.782;7.152;2022-11-11T03:47:57;11.82;;;6.90;;
27408;SDS011;20413;50.782;7.152;2022-11-11T03:50:23;15.75;;;7.25;;
27408;SDS011;20413;50.782;7.152;2022-11-11T03:52:49;10.75;;;6.85;;
27408;SDS011;20413;50.782;7.152;2022-11-11T03:55:15;15.27;;;7.55;;
27408;SDS011;20413;50.782;7.152;2022-11-11T03:57:42;12.25;;;7.55;;
27408;SDS011;20413;50.782;7.152;2022-11-11T04:00:09;12.10;;;6.53;;
27408;SDS011;20413;50.782;7.152;2022-11-11T04:02:35;12.80;;;7.00;;
27408;SDS011;20413;50.782;7.152;2022-11-11T04:05:20;11.50;;;6.45;;
27408;SDS011;20413;50.782;7.152;2022-11-11T04:08:09;12.43;;;7.03;;
27408;SDS011;20413;50.782;7.152;2022-11-11T04:10:54;9.23;;;6.43;;
27408;SDS011;20413;50.782;7.152;2022-11-11T04:13:20;12.68;;;6.90;;
27408;SDS011;20413;50.782;7.152;2022-11-11T04:16:05;12.55;;;6.72;;
27408;SDS011;20413;50.782;7.152;2022-11-11T04:18:35;18.52;;;7.90;;
27408;SDS011;20413;50.782;7.152;2022-11-11T04:24:05;15.30;;;7.47;;
27408;SDS011;20413;50.782;7.152;2022-11-11T04:26:52;18.45;;;8.35;;
27408;SDS011;20413;50.782;7.152;2022-11-11T04:29:18;16.30;;;8.60;;
27408;SDS011;20413;50.782;7.152;2022-11-11T04:32:03;16.25;;;8.05;;
27408;SDS011;20413;50.782;7.152;2022-11-11T04:34:52;18.85;;;7.38;;
27408;SDS011;20413;50.782;7.152;2022-11-11T04:37:19;14.40;;;7.93;;
27408;SDS011;20413;50.782;7.152;2022-11-11T04:39:45;21.10;;;8.57;;
27408;SDS011;20413;50.782;7.152;2022-11-11T04:42:31;17.23;;;8.65;;
27408;SDS011;20413;50.782;7.152;2022-11-11T04:44:58;16.48;;;9.05;;
27408;SDS011;20413;50.782;7.152;2022-11-11T04:50:22;20.80;;;9.10;;
27408;SDS011;20413;50.782;7.152;2022-11-11T04:52:48;13.98;;;8.50;;
27408;SDS011;20413;50.782;7.152;2022-11-11T04:55:14;19.75;;;9.43;;
27408;SDS011;20413;50.782;7.152;2022-11-11T04:57:59;18.63;;;9.07;;
27408;SDS011;20413;50.782;7.152;2022-11-11T05:00:26;22.30;;;9.45;;
27408;SDS011;20413;50.782;7.152;2022-11-11T05:02:55;17.35;;;8.73;;
27408;SDS011;20413;50.782;7.152;2022-11-11T05:08:24;14.52;;;8.98;;
27408;SDS011;20413;50.782;7.152;2022-11-11T05:11:09;21.15;;;9.32;;
27408;SDS011;20413;50.782;7.152;2022-11-11T05:13:35;17.73;;;9.10;;
27408;SDS011;20413;50.782;7.152;2022-11-11T05:16:20;18.50;;;8.70;;
27408;SDS011;20413;50.782;7.152;2022-11-11T05:19:07;16.95;;;9.05;;
27408;SDS011;20413;50.782;7.152;2022-11-11T05:21:52;17.63;;;9.80;;
27408;SDS011;20413;50.782;7.152;2022-11-11T05:24:20;19.73;;;10.27;;
27408;SDS011;20413;50.782;7.152;2022-11-11T05:27:05;20.38;;;9.63;;
27408;SDS011;20413;50.782;7.152;2022-11-11T05:29:32;21.40;;;9.75;;
27408;SDS011;20413;50.782;7.152;2022-11-11T05:31:58;16.88;;;8.85;;
27408;SDS011;20413;50.782;7.152;2022-11-11T05:34:24;19.58;;;9.65;;
27408;SDS011;20413;50.782;7.152;2022-11-11T05:36:50;24.95;;;10.63;;
27408;SDS011;20413;50.782;7.152;2022-11-11T05:39:16;17.95;;;10.15;;
27408;SDS011;20413;50.782;7.152;2022-11-11T05:41:42;21.80;;;10.30;;
27408;SDS011;20413;50.782;7.152;2022-11-11T05:44:08;26.98;;;11.93;;
27408;SDS011;20413;50.782;7.152;2022-11-11T05:46:34;25.38;;;10.73;;
27408;SDS011;20413;50.782;7.152;2022-11-11T05:49:00;20.10;;;10.10;;
27408;SDS011;20413;50.782;7.152;2022-11-11T05:51:42;20.00;;;10.68;;
27408;SDS011;20413;50.782;7.152;2022-11-11T05:54:08;18.98;;;11.05;;
27408;SDS011;20413;50.782;7.152;2022-11-11T05:56:34;20.92;;;11.02;;
27408;SDS011;20413;50.782;7.152;2022-11-11T05:59:00;23.52;;;9.88;;
27408;SDS011;20413;50.782;7.152;2022-11-11T06:01:26;22.63;;;10.27;;
27408;SDS011;20413;50.782;7.152;2022-11-11T06:03:52;22.88;;;10.70;;
27408;SDS011;20413;50.782;7.152;2022-11-11T06:06:18;19.55;;;10.93;;
27408;SDS011;20413;50.782;7.152;2022-11-11T06:08:44;20.60;;;11.45;;
27408;SDS011;20413;50.782;7.152;2022-11-11T06:11:10;22.58;;;9.95;;
27408;SDS011;20413;50.782;7.152;2022-11-11T06:13:36;22.08;;;11.25;;
27408;SDS011;20413;50.782;7.152;2022-11-11T06:16:02;25.35;;;11.63;;
27408;SDS011;20413;50.782;7.152;2022-11-11T06:18:29;26.65;;;12.48;;
27408;SDS011;20413;50.782;7.152;2022-11-11T06:20:55;27.60;;;13.18;;
27408;SDS011;20413;50.782;7.152;2022-11-11T06:23:22;26.10;;;12.45;;
27408;SDS011;20413;50.782;7.152;2022-11-11T06:25:48;27.45;;;13.15;;
27408;SDS011;20413;50.782;7.152;2022-11-11T06:28:33;28.20;;;12.23;;
27408;SDS011;20413;50.782;7.152;2022-11-11T06:30:59;26.23;;;11.98;;
27408;SDS011;20413;50.782;7.152;2022-11-11T06:33:25;29.92;;;12.82;;
27408;SDS011;20413;50.782;7.152;2022-11-11T06:35:52;27.90;;;12.18;;
27408;SDS011;20413;50.782;7.152;2022-11-11T06:38:18;33.35;;;12.18;;
27408;SDS011;20413;50.782;7.152;2022-11-11T06:40:44;26.77;;;11.85;;
27408;SDS011;20413;50.782;7.152;2022-11-11T06:43:10;26.48;;;11.70;;
27408;SDS011;20413;50.782;7.152;2022-11-11T06:45:36;24.63;;;11.75;;
27408;SDS011;20413;50.782;7.152;2022-11-11T06:48:03;26.48;;;11.10;;
27408;SDS011;20413;50.782;7.152;2022-11-11T06:50:30;30.58;;;12.30;;
27408;SDS011;20413;50.782;7.152;2022-11-11T06:53:02;29.92;;;11.80;;
27408;SDS011;20413;50.782;7.152;2022-11-11T06:55:29;28.63;;;11.80;;
27408;SDS011;20413;50.782;7.152;2022-11-11T06:57:55;28.60;;;12.40;;
27408;SDS011;20413;50.782;7.152;2022-11-11T07:00:21;28.80;;;12.23;;
27408;SDS011;20413;50.782;7.152;2022-11-11T07:02:47;24.42;;;11.10;;
27408;SDS011;20413;50.782;7.152;2022-11-11T07:05:19;28.00;;;11.48;;
27408;SDS011;20413;50.782;7.152;2022-11-11T07:07:45;28.73;;;11.68;;
27408;SDS011;20413;50.782;7.152;2022-11-11T07:10:11;30.33;;;11.60;;
27408;SDS011;20413;50.782;7.152;2022-11-11T07:12:39;29.10;;;10.57;;
27408;SDS011;20413;50.782;7.152;2022-11-11T07:15:06;25.15;;;10.88;;
27408;SDS011;20413;50.782;7.152;2022-11-11T07:17:32;26.08;;;10.98;;
27408;SDS011;20413;50.782;7.152;2022-11-11T07:19:58;31.95;;;11.98;;
27408;SDS011;20413;50.782;7.152;2022-11-11T07:22:24;31.30;;;11.20;;
27408;SDS011;20413;50.782;7.152;2022-11-11T07:24:50;23.95;;;11.50;;
27408;SDS011;20413;50.782;7.152;2022-11-11T07:27:16;21.65;;;10.73;;
27408;SDS011;20413;50.782;7.152;2022-11-11T07:29:42;22.70;;;11.27;;
27408;SDS011;20413;50.782;7.152;2022-11-11T07:32:08;24.48;;;10.68;;
27408;SDS011;20413;50.782;7.152;2022-11-11T07:34:34;28.10;;;10.65;;
27408;SDS011;20413;50.782;7.152;2022-11-11T07:37:00;17.40;;;9.60;;
27408;SDS011;20413;50.782;7.152;2022-11-11T07:39:26;19.60;;;9.20;;
27408;SDS011;20413;50.782;7.152;2022-11-11T07:41:52;20.33;;;10.50;;
27408;SDS011;20413;50.782;7.152;2022-11-11T07:44:18;18.83;;;9.93;;
27408;SDS011;20413;50.782;7.152;2022-11-11T07:46:44;20.48;;;9.85;;
27408;SDS011;20413;50.782;7.152;2022-11-11T07:49:10;20.00;;;9.55;;
27408;SDS011;20413;50.782;7.152;2022-11-11T07:51:36;18.10;;;8.93;;
27408;SDS011;20413;50.782;7.152;2022-11-11T07:54:03;18.75;;;10.20;;
27408;SDS011;20413;50.782;7.152;2022-11-11T07:56:29;23.50;;;10.38;;
27408;SDS011;20413;50.782;7.152;2022-11-11T07:58:55;15.85;;;9.18;;
27408;SDS011;20413;50.782;7.152;2022-11-11T08:01:21;15.68;;;9.25;;
27408;SDS011;20413;50.782;7.152;2022-11-11T08:03:47;17.73;;;9.23;;
27408;SDS011;20413;50.782;7.152;2022-11-11T08:06:16;18.92;;;10.55;;
27408;SDS011;20413;50.782;7.152;2022-11-11T08:08:42;20.85;;;10.48;;
27408;SDS011;20413;50.782;7.152;2022-11-11T08:11:08;18.85;;;9.30;;
27408;SDS011;20413;50.782;7.152;2022-11-11T08:13:34;16.63;;;9.25;;
27408;SDS011;20413;50.782;7.152;2022-11-11T08:16:08;17.83;;;9.25;;
27408;SDS011;20413;50.782;7.152;2022-11-11T08:18:34;17.08;;;10.20;;
27408;SDS011;20413;50.782;7.152;2022-11-11T08:21:01;17.10;;;9.50;;
27408;SDS011;20413;50.782;7.152;2022-11-11T08:23:27;17.75;;;8.98;;
27408;SDS011;20413;50.782;7.152;2022-11-11T08:25:58;16.23;;;9.20;;
27408;SDS011;20413;50.782;7.152;2022-11-11T08:28:24;16.60;;;8.77;;
27408;SDS011;20413;50.782;7.152;2022-11-11T08:30:50;14.75;;;8.93;;
27408;SDS011;20413;50.782;7.152;2022-11-11T08:33:17;16.73;;;8.95;;
27408;SDS011;20413;50.782;7.152;2022-11-11T08:35:43;16.92;;;8.93;;
27408;SDS011;20413;50.782;7.152;2022-11-11T08:38:09;13.20;;;8.38;;
27408;SDS011;20413;50.782;7.152;2022-11-11T08:40:35;15.70;;;8.52;;
27408;SDS011;20413;50.782;7.152;2022-11-11T08:43:01;14.57;;;8.60;;
27408;SDS011;20413;50.782;7.152;2022-11-11T08:45:27;17.27;;;8.20;;
27408;SDS011;20413;50.782;7.152;2022-11-11T08:47:53;13.60;;;8.30;;
27408;SDS011;20413;50.782;7.152;2022-11-11T08:50:19;16.02;;;8.30;;
27408;SDS011;20413;50.782;7.152;2022-11-11T08:52:46;13.85;;;8.52;;
27408;SDS011;20413;50.782;7.152;2022-11-11T08:55:12;16.02;;;8.70;;
27408;SDS011;20413;50.782;7.152;2022-11-11T08:57:38;17.35;;;8.93;;
27408;SDS011;20413;50.782;7.152;2022-11-11T09:00:04;18.23;;;9.60;;
27408;SDS011;20413;50.782;7.152;2022-11-11T09:02:31;17.23;;;8.43;;
27408;SDS011;20413;50.782;7.152;2022-11-11T09:04:57;14.00;;;8.75;;
27408;SDS011;20413;50.782;7.152;2022-11-11T09:07:23;20.02;;;8.18;;
27408;SDS011;20413;50.782;7.152;2022-11-11T09:09:49;16.92;;;8.35;;
27408;SDS011;20413;50.782;7.152;2022-11-11T09:12:15;17.00;;;7.80;;
27408;SDS011;20413;50.782;7.152;2022-11-11T09:14:41;14.52;;;7.80;;
27408;SDS011;20413;50.782;7.152;2022-11-11T09:17:07;12.63;;;7.13;;
27408;SDS011;20413;50.782;7.152;2022-11-11T09:19:33;12.88;;;8.20;;
27408;SDS011;20413;50.782;7.152;2022-11-11T09:21:59;13.88;;;7.10;;
27408;SDS011;20413;50.782;7.152;2022-11-11T09:24:25;10.95;;;7.22;;
27408;SDS011;20413;50.782;7.152;2022-11-11T09:26:51;13.68;;;7.18;;
27408;SDS011;20413;50.782;7.152;2022-11-11T09:29:17;14.52;;;7.28;;
27408;SDS011;20413;50.782;7.152;2022-11-11T09:31:45;12.02;;;6.95;;
27408;SDS011;20413;50.782;7.152;2022-11-11T09:34:11;12.60;;;7.25;;
27408;SDS011;20413;50.782;7.152;2022-11-11T09:36:38;13.73;;;6.50;;
27408;SDS011;20413;50.782;7.152;2022-11-11T09:39:04;16.27;;;7.22;;
27408;SDS011;20413;50.782;7.152;2022-11-11T09:41:36;15.82;;;6.55;;
27408;SDS011;20413;50.782;7.152;2022-11-11T09:44:08;12.23;;;6.43;;
27408;SDS011;20413;50.782;7.152;2022-11-11T09:49:48;8.38;;;5.85;;
27408;SDS011;20413;50.782;7.152;2022-11-11T09:52:22;12.30;;;6.53;;
27408;SDS011;20413;50.782;7.152;2022-11-11T09:54:51;9.32;;;6.38;;
27408;SDS011;20413;50.782;7.152;2022-11-11T09:57:41;10.63;;;6.70;;
27408;SDS011;20413;50.782;7.152;2022-11-11T10:00:06;10.90;;;6.18;;
27408;SDS011;20413;50.782;7.152;2022-11-11T10:02:42;14.82;;;6.43;;
27408;SDS011;20413;50.782;7.152;2022-11-11T10:05:10;10.98;;;6.68;;
27408;SDS011;20413;50.782;7.152;2022-11-11T10:07:43;11.82;;;6.30;;
27408;SDS011;20413;50.782;7.152;2022-11-11T10:12:45;9.98;;;5.90;;
27408;SDS011;20413;50.782;7.152;2022-11-11T10:15:12;10.00;;;5.25;;
27408;SDS011;20413;50.782;7.152;2022-11-11T10:17:44;9.98;;;5.95;;
27408;SDS011;20413;50.782;7.152;2022-11-11T10:20:15;9.23;;;5.07;;
27408;SDS011;20413;50.782;7.152;2022-11-11T10:22:43;9.65;;;4.97;;
27408;SDS011;20413;50.782;7.152;2022-11-11T10:27:38;12.38;;;5.57;;
27408;SDS011;20413;50.782;7.152;2022-11-11T10:30:18;9.25;;;4.97;;
27408;SDS011;20413;50.782;7.152;2022-11-11T10:32:51;8.48;;;4.80;;
27408;SDS011;20413;50.782;7.152;2022-11-11T10:35:19;10.70;;;4.05;;
27408;SDS011;20413;50.782;7.152;2022-11-11T10:37:46;10.23;;;4.57;;
27408;SDS011;20413;50.782;7.152;2022-11-11T10:42:43;8.23;;;4.50;;
27408;SDS011;20413;50.782;7.152;2022-11-11T10:45:20;8.30;;;4.47;;
27408;SDS011;20413;50.782;7.152;2022-11-11T10:50:25;5.60;;;4.13;;
27408;SDS011;20413;50.782;7.152;2022-11-11T10:52:59;5.40;;;3.20;;
27408;SDS011;20413;50.782;7.152;2022-11-11T10:55:29;7.68;;;3.60;;
27408;SDS011;20413;50.782;7.152;2022-11-11T11:00:32;7.30;;;3.83;;
27408;SDS011;20413;50.782;7.152;2022-11-11T11:08:11;6.22;;;3.75;;
27408;SDS011;20413;50.782;7.152;2022-11-11T11:10:43;15.45;;;7.60;;
27408;SDS011;20413;50.782;7.152;2022-11-11T11:15:40;4.97;;;3.28;;
27408;SDS011;20413;50.782;7.152;2022-11-11T11:18:11;7.05;;;3.85;;
27408;SDS011;20413;50.782;7.152;2022-11-11T11:20:38;7.40;;;3.38;;
27408;SDS011;20413;50.782;7.152;2022-11-11T11:23:04;8.02;;;3.75;;
27408;SDS011;20413;50.782;7.152;2022-11-11T11:25:31;5.28;;;3.17;;
27408;SDS011;20413;50.782;7.152;2022-11-11T11:28:31;5.97;;;2.67;;
27408;SDS011;20413;50.782;7.152;2022-11-11T11:31:05;5.90;;;3.33;;
27408;SDS011;20413;50.782;7.152;2022-11-11T11:36:17;5.18;;;2.85;;
27408;SDS011;20413;50.782;7.152;2022-11-11T11:38:44;6.00;;;2.75;;
27408;SDS011;20413;50.782;7.152;2022-11-11T11:41:16;6.70;;;2.65;;
27408;SDS011;20413;50.782;7.152;2022-11-11T11:43:43;11.05;;;3.25;;
27408;SDS011;20413;50.782;7.152;2022-11-11T11:46:22;6.38;;;2.85;;
27408;SDS011;20413;50.782;7.152;2022-11-11T11:56:40;5.70;;;2.20;;
27408;SDS011;20413;50.782;7.152;2022-11-11T12:06:52;3.75;;;2.20;;
27408;SDS011;20413;50.782;7.152;2022-11-11T12:09:24;3.83;;;2.05;;
27408;SDS011;20413;50.782;7.152;2022-11-11T12:14:28;5.35;;;2.30;;
27408;SDS011;20413;50.782;7.152;2022-11-11T12:17:06;3.50;;;2.15;;
27408;SDS011;20413;50.782;7.152;2022-11-11T12:19:50;3.95;;;2.10;;
27408;SDS011;20413;50.782;7.152;2022-11-11T12:22:30;6.88;;;2.00;;
27408;SDS011;20413;50.782;7.152;2022-11-11T12:27:47;5.32;;;2.22;;
27408;SDS011;20413;50.782;7.152;2022-11-11T12:30:18;5.82;;;2.05;;
27408;SDS011;20413;50.782;7.152;2022-11-11T12:35:30;3.33;;;1.70;;
27408;SDS011;20413;50.782;7.152;2022-11-11T12:38:24;2.75;;;1.58;;
27408;SDS011;20413;50.782;7.152;2022-11-11T12:41:00;7.43;;;1.70;;
27408;SDS011;20413;50.782;7.152;2022-11-11T12:45:56;2.83;;;1.40;;
27408;SDS011;20413;50.782;7.152;2022-11-11T12:48:32;2.03;;;1.40;;
27408;SDS011;20413;50.782;7.152;2022-11-11T12:56:22;4.35;;;1.60;;
27408;SDS011;20413;50.782;7.152;2022-11-11T13:01:27;6.13;;;1.98;;
27408;SDS011;20413;50.782;7.152;2022-11-11T13:06:52;2.47;;;1.00;;
27408;SDS011;20413;50.782;7.152;2022-11-11T13:09:28;4.10;;;1.27;;
27408;SDS011;20413;50.782;7.152;2022-11-11T13:14:55;3.08;;;1.08;;
27408;SDS011;20413;50.782;7.152;2022-11-11T13:17:23;2.20;;;1.20;;
27408;SDS011;20413;50.782;7.152;2022-11-11T13:19:56;4.28;;;0.90;;
27408;SDS011;20413;50.782;7.152;2022-11-11T13:22:24;6.28;;;1.60;;
27408;SDS011;20413;50.782;7.152;2022-11-11T13:24:52;1.50;;;1.15;;
27408;SDS011;20413;50.782;7.152;2022-11-11T13:32:24;3.58;;;1.27;;
27408;SDS011;20413;50.782;7.152;2022-11-11T13:34:51;3.75;;;1.08;;
27408;SDS011;20413;50.782;7.152;2022-11-11T13:37:27;1.95;;;1.17;;
27408;SDS011;20413;50.782;7.152;2022-11-11T13:39:59;3.17;;;1.08;;
27408;SDS011;20413;50.782;7.152;2022-11-11T13:42:27;3.25;;;1.10;;
27408;SDS011;20413;50.782;7.152;2022-11-11T13:44:57;0.95;;;0.80;;
27408;SDS011;20413;50.782;7.152;2022-11-11T13:47:26;2.53;;;0.90;;
27408;SDS011;20413;50.782;7.152;2022-11-11T13:49:56;2.83;;;1.05;;
27408;SDS011;20413;50.782;7.152;2022-11-11T13:52:27;1.33;;;0.88;;
27408;SDS011;20413;50.782;7.152;2022-11-11T13:55:00;1.33;;;1.13;;
27408;SDS011;20413;50.782;7.152;2022-11-11T13:57:27;2.38;;;1.17;;
27408;SDS011;20413;50.782;7.152;2022-11-11T14:17:56;1.90;;;1.20;;
27408;SDS011;20413;50.782;7.152;2022-11-11T14:23:14;2.03;;;1.40;;
27408;SDS011;20413;50.782;7.152;2022-11-11T14:25:40;2.22;;;1.30;;
27408;SDS011;20413;50.782;7.152;2022-11-11T14:28:23;1.42;;;1.05;;
27408;SDS011;20413;50.782;7.152;2022-11-11T14:30:55;1.80;;;1.20;;
27408;SDS011;20413;50.782;7.152;2022-11-11T14:36:18;2.45;;;1.15;;
27408;SDS011;20413;50.782;7.152;2022-11-11T14:43:51;4.22;;;1.30;;
27408;SDS011;20413;50.782;7.152;2022-11-11T14:46:17;3.28;;;1.05;;
27408;SDS011;20413;50.782;7.152;2022-11-11T14:48:50;2.50;;;1.40;;
27408;SDS011;20413;50.782;7.152;2022-11-11T14:54:02;2.28;;;1.00;;
27408;SDS011;20413;50.782;7.152;2022-11-11T14:56:29;2.47;;;1.33;;
27408;SDS011;20413;50.782;7.152;2022-11-11T14:58:56;2.35;;;1.02;;
27408;SDS011;20413;50.782;7.152;2022-11-11T15:01:25;4.55;;;1.20;;
27408;SDS011;20413;50.782;7.152;2022-11-11T15:03:51;2.05;;;0.93;;
27408;SDS011;20413;50.782;7.152;2022-11-11T15:06:21;6.72;;;1.30;;
27408;SDS011;20413;50.782;7.152;2022-11-11T15:11:20;2.17;;;0.90;;
27408;SDS011;20413;50.782;7.152;2022-11-11T15:37:31;3.50;;;1.20;;
27408;SDS011;20413;50.782;7.152;2022-11-11T15:39:57;2.92;;;1.25;;
27408;SDS011;20413;50.782;7.152;2022-11-11T15:42:33;3.08;;;1.20;;
27408;SDS011;20413;50.782;7.152;2022-11-11T15:45:02;3.72;;;1.10;;
27408;SDS011;20413;50.782;7.152;2022-11-11T15:47:28;2.27;;;1.03;;
27408;SDS011;20413;50.782;7.152;2022-11-11T15:50:00;3.85;;;1.15;;
27408;SDS011;20413;50.782;7.152;2022-11-11T15:52:30;3.45;;;1.30;;
27408;SDS011;20413;50.782;7.152;2022-11-11T15:54:57;3.30;;;1.58;;
27408;SDS011;20413;50.782;7.152;2022-11-11T15:59:56;4.25;;;1.45;;
27408;SDS011;20413;50.782;7.152;2022-11-11T16:02:26;6.47;;;1.55;;
27408;SDS011;20413;50.782;7.152;2022-11-11T16:05:02;3.75;;;1.50;;
27408;SDS011;20413;50.782;7.152;2022-11-11T16:07:30;2.70;;;1.20;;
27408;SDS011;20413;50.782;7.152;2022-11-11T16:09:57;4.17;;;1.33;;
27408;SDS011;20413;50.782;7.152;2022-11-11T16:12:26;3.88;;;1.90;;
27408;SDS011;20413;50.782;7.152;2022-11-11T16:14:56;5.07;;;1.70;;
27408;SDS011;20413;50.782;7.152;2022-11-11T16:17:24;2.17;;;1.70;;
27408;SDS011;20413;50.782;7.152;2022-11-11T16:19:52;2.90;;;1.80;;
27408;SDS011;20413;50.782;7.152;2022-11-11T16:22:19;3.22;;;1.67;;
27408;SDS011;20413;50.782;7.152;2022-11-11T16:24:46;2.40;;;1.98;;
27408;SDS011;20413;50.782;7.152;2022-11-11T16:27:14;4.80;;;1.92;;
27408;SDS011;20413;50.782;7.152;2022-11-11T16:29:41;5.97;;;1.95;;
27408;SDS011;20413;50.782;7.152;2022-11-11T16:34:49;5.05;;;1.58;;
27408;SDS011;20413;50.782;7.152;2022-11-11T16:37:17;3.90;;;1.40;;
27408;SDS011;20413;50.782;7.152;2022-11-11T16:39:43;5.28;;;1.30;;
27408;SDS011;20413;50.782;7.152;2022-11-11T16:42:27;5.13;;;1.60;;
27408;SDS011;20413;50.782;7.152;2022-11-11T16:44:56;3.50;;;1.55;;
27408;SDS011;20413;50.782;7.152;2022-11-11T16:52:26;3.47;;;1.50;;
27408;SDS011;20413;50.782;7.152;2022-11-11T16:54:54;3.95;;;1.92;;
27408;SDS011;20413;50.782;7.152;2022-11-11T16:57:22;5.40;;;1.40;;
27408;SDS011;20413;50.782;7.152;2022-11-11T16:59:51;4.28;;;1.92;;
27408;SDS011;20413;50.782;7.152;2022-11-11T17:02:19;7.90;;;2.85;;
27408;SDS011;20413;50.782;7.152;2022-11-11T17:04:49;10.47;;;3.33;;
27408;SDS011;20413;50.782;7.152;2022-11-11T17:07:29;2.40;;;2.00;;
27408;SDS011;20413;50.782;7.152;2022-11-11T17:12:33;6.97;;;2.60;;
27408;SDS011;20413;50.782;7.152;2022-11-11T17:15:01;4.13;;;2.85;;
27408;SDS011;20413;50.782;7.152;2022-11-11T17:17:31;5.47;;;2.80;;
27408;SDS011;20413;50.782;7.152;2022-11-11T17:19:58;4.03;;;2.47;;
27408;SDS011;20413;50.782;7.152;2022-11-11T17:22:25;6.78;;;3.33;;
27408;SDS011;20413;50.782;7.152;2022-11-11T17:24:51;5.75;;;2.30;;
27408;SDS011;20413;50.782;7.152;2022-11-11T17:27:17;4.68;;;2.40;;
27408;SDS011;20413;50.782;7.152;2022-11-11T17:29:43;3.60;;;2.63;;
27408;SDS011;20413;50.782;7.152;2022-11-11T17:32:09;5.30;;;2.45;;